Clifton, NJ

12:17 AM EDT on August 22, 2014 (GMT -0400)
Central Park | Change Station
CLOSE
Current Station
Airport
Location: Central Park,
Elevation: 154 ft
Nearby Weather Stations
Active Advisory: Areal Flood Advisory

Elev 154 ft 40.78 °N, 73.97 °W | Updated 19 minutes ago

Heavy Rain
Heavy Rain Mist
69 °F
Feels Like 69 °F
N
7
Wind Variable Wind from West

Today
High -- | Low -- °F
--% Chance of Precip.
Yesterday
High -- | Low -- °F
Precip. -- in
6:13 AM 7:44 PM
Waning Crescent, 10% visible
Pressure 30.09 in
Visibility 1.5 miles
Clouds Mostly Cloudy 1400 ft
Overcast 2000 ft
Dew Point 66 °F
Humidity 90%
Rainfall 0.13 in
Snow Depth Not available.
UV 0 out of 12
Pollen 8.70 out of 12
Air Quality Not available.
Flu Activity Not available.
SPECI KNYC 220358Z AUTO 28006KT 1 1/2SM +RA BR BKN014 OVC020 21/19 A3009 RMK AO2 P0004 T02060189 $

More Conditions Fewer Conditions

Pressure 30.09 in
Visibility 1.5 miles
Clouds Mostly Cloudy 1400 ft
Overcast 2000 ft
Dew Point 66 °F
Humidity 90%
Rainfall 0.13 in
Snow Depth Not available.
UV 0 out of 12
Pollen 8.70 out of 12
Air Quality Not available.
Flu Activity Not available.
SPECI KNYC 220358Z AUTO 28006KT 1 1/2SM +RA BR BKN014 OVC020 21/19 A3009 RMK AO2 P0004 T02060189 $

More Conditions Fewer Conditions

10-Day Weather Forecast

Almanac

Astronomy

Aug. 22, 2014 Rise Set
Actual Time 6:13 AM EDT 7:44 PM EDT
Civil Twilight 5:44 AM EDT 8:13 PM EDT
Nautical Twilight 5:09 AM EDT 8:48 PM EDT
Astronomical Twilight 4:32 AM EDT 9:24 PM EDT
Moon 3:33 AM EDT 5:51 PM EDT
Length of Visible Light 14h 28m
Length of Day
13h 31m
Tomorrow will be 2m 31s shorter.
Waning Crescent, 10% of the Moon is Illuminated
Today
Waning Crescent
Aug 25
New
Sep 2
First Quarter
Sep 8
Full
Sep 15
Last Quarter

Yesterday's Extremes

State Highs State Lows

Community

WunderPhotos

Upload Photos

1,746,128 photos uploaded!

Nearby

Snow Depth

Station Depth Elevation
No new snow has been reported.

Earthquake Activity

City Distance Mag. Time & Date
No recent earthquake activity has been reported nearby.
Minimum magnitude displayed is 2.5.

Coastal Water Temperatures

Place Temperature
Sandy Hook, NJ 75.0 °F
The Battery, NY 73.0 °F
Bergen Point West Reach, NJ 73.9 °F
Kings Point, NY 73.9 °F

Nearby Weather Stations